createdAt,value
2022-08-07T00:00:29.973Z,8.68
2022-08-07T00:03:02.788Z,8.68
2022-08-07T00:05:36.136Z,8.70
2022-08-07T00:08:09.275Z,8.27
2022-08-07T00:10:47.917Z,8.10
2022-08-07T00:13:25.886Z,9.02
2022-08-07T00:15:59.299Z,8.65
2022-08-07T00:18:32.643Z,9.48
2022-08-07T00:21:07.998Z,10.18
2022-08-07T00:23:59.496Z,8.27
2022-08-07T00:26:58.713Z,8.30
2022-08-07T00:29:31.261Z,7.55
2022-08-07T00:32:03.646Z,9.23
2022-08-07T00:34:38.086Z,8.75
2022-08-07T00:37:10.437Z,9.15
2022-08-07T00:39:45.235Z,8.77
2022-08-07T00:42:29.185Z,8.10
2022-08-07T00:45:01.374Z,8.75
2022-08-07T00:48:05.382Z,7.85
2022-08-07T00:50:50.548Z,9.27
2022-08-07T00:53:23.380Z,9.52
2022-08-07T00:56:02.952Z,8.27
2022-08-07T00:58:35.841Z,8.95
2022-08-07T01:01:10.149Z,8.88
2022-08-07T01:03:57.062Z,9.65
2022-08-07T01:06:31.933Z,10.27
2022-08-07T01:09:04.943Z,8.57
2022-08-07T01:12:23.320Z,8.63
2022-08-07T01:14:30.107Z,9.93
2022-08-07T01:17:04.249Z,9.43
2022-08-07T01:19:39.935Z,9.90
2022-08-07T01:22:29.432Z,9.18
2022-08-07T01:25:02.543Z,9.50
2022-08-07T01:27:56.088Z,9.85
2022-08-07T01:30:30.049Z,10.00
2022-08-07T01:33:02.153Z,9.45
2022-08-07T01:35:52.706Z,10.07
2022-08-07T01:38:29.180Z,10.90
2022-08-07T01:41:04.443Z,9.77
2022-08-07T01:43:39.005Z,9.90
2022-08-07T01:46:12.166Z,9.52
2022-08-07T01:48:47.593Z,9.55
2022-08-07T01:52:00.941Z,10.50
2022-08-07T01:54:37.048Z,10.02
2022-08-07T01:57:24.952Z,10.77
2022-08-07T02:00:12.983Z,10.88
2022-08-07T02:03:12.016Z,11.10
2022-08-07T02:06:08.937Z,11.00
2022-08-07T02:08:57.369Z,10.38
2022-08-07T02:12:03.644Z,11.20
2022-08-07T02:14:35.903Z,11.07
2022-08-07T02:17:11.398Z,10.93
2022-08-07T02:20:04.156Z,11.13
2022-08-07T02:22:41.487Z,11.13
2022-08-07T02:25:19.071Z,11.18
2022-08-07T02:27:53.060Z,11.82
2022-08-07T02:30:26.712Z,12.20
2022-08-07T02:33:09.251Z,10.95
2022-08-07T02:36:28.315Z,10.23
2022-08-07T02:38:40.029Z,11.40
2022-08-07T02:41:24.377Z,10.85
2022-08-07T02:44:10.318Z,11.90
2022-08-07T02:46:46.911Z,11.00
2022-08-07T02:49:28.849Z,11.27
2022-08-07T02:52:30.927Z,10.23
2022-08-07T02:55:27.359Z,10.75
2022-08-07T02:58:07.944Z,10.35
2022-08-07T03:00:46.825Z,11.30
2022-08-07T03:03:22.878Z,10.38
2022-08-07T03:05:57.356Z,10.60
2022-08-07T03:08:30.636Z,11.48
2022-08-07T03:11:03.173Z,11.02
2022-08-07T03:13:38.770Z,10.40
2022-08-07T03:16:11.591Z,11.27
2022-08-07T03:18:44.555Z,11.25
2022-08-07T03:21:19.860Z,11.93
2022-08-07T03:24:18.062Z,12.65
2022-08-07T03:26:58.522Z,11.63
2022-08-07T03:29:38.070Z,12.15
2022-08-07T03:32:13.518Z,12.70
2022-08-07T03:35:01.026Z,12.80
2022-08-07T03:37:46.463Z,13.45
2022-08-07T03:40:31.004Z,13.30
2022-08-07T03:43:09.994Z,12.50
2022-08-07T03:45:47.824Z,12.18
2022-08-07T03:48:21.331Z,12.30
2022-08-07T03:50:57.722Z,13.05
2022-08-07T03:54:33.098Z,13.18
2022-08-07T03:56:33.276Z,13.10
2022-08-07T03:59:12.930Z,13.55
2022-08-07T04:01:46.774Z,13.20
2022-08-07T04:04:19.435Z,12.40
2022-08-07T04:06:52.879Z,12.77
2022-08-07T04:09:44.843Z,13.25
2022-08-07T04:12:25.275Z,13.20
2022-08-07T04:15:00.483Z,13.57
2022-08-07T04:18:57.824Z,12.95
2022-08-07T04:20:25.395Z,14.57
2022-08-07T04:23:01.505Z,13.10
2022-08-07T04:25:39.403Z,13.77
2022-08-07T04:28:13.434Z,14.52
2022-08-07T04:30:57.237Z,14.43
2022-08-07T04:33:31.289Z,13.50
2022-08-07T04:36:11.732Z,12.90
2022-08-07T04:38:44.600Z,13.68
2022-08-07T04:41:18.187Z,13.40
2022-08-07T04:44:12.419Z,12.82
2022-08-07T04:47:03.845Z,13.07
2022-08-07T04:49:58.079Z,13.75
2022-08-07T04:52:58.781Z,13.82
2022-08-07T04:58:15.667Z,13.20
2022-08-07T04:59:17.818Z,15.30
2022-08-07T05:01:46.790Z,14.07
2022-08-07T05:04:37.725Z,13.13
2022-08-07T05:07:30.663Z,12.35
2022-08-07T05:10:18.994Z,12.18
2022-08-07T05:14:55.033Z,12.13
2022-08-07T05:16:31.713Z,12.00
2022-08-07T05:19:10.794Z,11.68
2022-08-07T05:22:00.134Z,12.57
2022-08-07T05:24:40.356Z,12.10
2022-08-07T05:28:03.387Z,12.73
2022-08-07T05:30:08.351Z,10.68
2022-08-07T05:32:45.696Z,11.93
2022-08-07T05:35:33.122Z,12.48
2022-08-07T05:38:08.935Z,11.05
2022-08-07T05:40:50.381Z,11.30
2022-08-07T05:43:49.771Z,11.10
2022-08-07T05:46:19.996Z,10.07
2022-08-07T05:48:59.698Z,9.80
2022-08-07T05:51:33.319Z,9.45
2022-08-07T05:54:30.809Z,9.57
2022-08-07T05:57:04.404Z,8.50
2022-08-07T05:59:55.809Z,8.50
2022-08-07T06:02:33.506Z,8.57
2022-08-07T06:05:15.426Z,9.15
2022-08-07T06:08:14.294Z,7.88
2022-08-07T06:10:42.544Z,8.13
2022-08-07T06:13:15.685Z,8.82
2022-08-07T06:15:50.110Z,8.70
2022-08-07T06:18:23.421Z,8.18
2022-08-07T06:22:14.804Z,8.10
2022-08-07T06:24:38.365Z,9.43
2022-08-07T06:26:46.157Z,9.45
2022-08-07T06:29:19.218Z,10.05
2022-08-07T06:31:51.394Z,9.45
2022-08-07T06:34:29.664Z,9.95
2022-08-07T06:37:02.816Z,10.13
2022-08-07T06:40:15.683Z,8.77
2022-08-07T06:42:37.515Z,8.30
2022-08-07T06:45:18.325Z,8.02
2022-08-07T06:47:57.321Z,7.47
2022-08-07T06:50:33.622Z,8.40
2022-08-07T06:53:49.209Z,8.35
2022-08-07T06:56:03.964Z,8.10
2022-08-07T06:58:40.602Z,8.23
2022-08-07T07:01:43.702Z,9.15
2022-08-07T07:04:32.650Z,9.32
2022-08-07T07:07:18.899Z,8.05
2022-08-07T07:09:59.776Z,8.32
2022-08-07T07:12:50.305Z,8.07
2022-08-07T07:15:36.189Z,7.88
2022-08-07T07:18:47.097Z,7.47
2022-08-07T07:21:26.957Z,7.47
2022-08-07T07:24:12.815Z,7.45
2022-08-07T07:26:49.620Z,7.82
2022-08-07T07:29:56.679Z,6.90
2022-08-07T07:32:23.723Z,7.53
2022-08-07T07:34:59.532Z,7.25
2022-08-07T07:37:49.469Z,7.00
2022-08-07T07:40:26.055Z,6.30
2022-08-07T07:43:11.579Z,7.07
2022-08-07T07:46:37.246Z,7.30
2022-08-07T07:48:43.182Z,6.35
2022-08-07T07:51:20.410Z,6.53
2022-08-07T07:53:54.548Z,7.72
2022-08-07T07:56:32.700Z,7.78
2022-08-07T07:59:06.641Z,7.18
2022-08-07T08:02:02.299Z,6.93
2022-08-07T08:04:37.319Z,6.05
2022-08-07T08:07:11.540Z,5.40
2022-08-07T08:09:51.653Z,5.53
2022-08-07T08:12:51.218Z,4.53
2022-08-07T08:15:16.888Z,3.80
2022-08-07T08:17:58.796Z,4.40
2022-08-07T08:20:49.732Z,4.30
2022-08-07T08:23:41.405Z,4.38
2022-08-07T08:26:34.687Z,4.72
2022-08-07T08:29:10.890Z,4.07
2022-08-07T08:32:17.386Z,3.40
2022-08-07T08:34:42.399Z,3.47
2022-08-07T08:37:59.035Z,3.50
2022-08-07T08:40:28.530Z,3.65
2022-08-07T08:43:58.806Z,3.83
2022-08-07T08:46:59.513Z,3.60
2022-08-07T08:50:02.733Z,3.53
2022-08-07T08:53:04.424Z,3.67
2022-08-07T08:55:54.585Z,4.10
2022-08-07T08:59:06.298Z,4.00
2022-08-07T09:02:01.382Z,4.95
2022-08-07T09:05:26.370Z,4.15
2022-08-07T09:08:29.113Z,4.22
2022-08-07T09:11:14.038Z,3.90
2022-08-07T09:14:31.602Z,3.20
2022-08-07T09:17:23.361Z,4.18
2022-08-07T09:20:35.931Z,3.80
2022-08-07T09:24:33.733Z,4.15
2022-08-07T09:26:53.812Z,4.35
2022-08-07T09:30:05.419Z,3.65
2022-08-07T09:33:40.659Z,4.20
2022-08-07T09:36:27.118Z,3.97
2022-08-07T09:39:54.353Z,3.92
2022-08-07T09:42:50.488Z,5.03
2022-08-07T09:47:25.163Z,4.10
2022-08-07T09:50:00.406Z,4.20
2022-08-07T09:52:33.858Z,4.03
2022-08-07T09:55:16.899Z,4.25
2022-08-07T09:58:10.309Z,3.85
2022-08-07T10:01:52.349Z,4.00
2022-08-07T10:04:47.691Z,3.90
2022-08-07T10:08:10.572Z,3.88
2022-08-07T10:11:17.232Z,3.60
2022-08-07T10:14:35.369Z,3.20
2022-08-07T10:18:02.564Z,2.92
2022-08-07T10:21:50.290Z,3.60
2022-08-07T10:24:30.512Z,3.85
2022-08-07T10:27:46.690Z,4.38
2022-08-07T10:30:51.448Z,3.25
2022-08-07T10:34:05.532Z,2.90
2022-08-07T10:36:55.584Z,3.15
2022-08-07T10:40:06.242Z,12.20
2022-08-07T10:43:08.152Z,3.60
2022-08-07T10:45:57.353Z,3.83
2022-08-07T10:49:02.935Z,3.72
2022-08-07T10:52:12.753Z,3.58
2022-08-07T10:55:21.231Z,4.38
2022-08-07T10:58:10.947Z,3.60
2022-08-07T11:00:58.494Z,3.55
2022-08-07T11:04:11.246Z,3.55
2022-08-07T11:07:56.544Z,2.67
2022-08-07T11:10:27.538Z,3.45
2022-08-07T11:13:42.404Z,3.00
2022-08-07T11:16:29.709Z,3.05
2022-08-07T11:19:21.692Z,2.85
2022-08-07T11:22:32.250Z,2.42
2022-08-07T11:25:36.218Z,2.40
2022-08-07T11:31:27.556Z,2.58
2022-08-07T11:34:26.779Z,2.70
2022-08-07T11:38:10.071Z,2.65
2022-08-07T11:40:39.720Z,2.80
2022-08-07T11:43:41.677Z,3.40
2022-08-07T11:46:43.164Z,3.10
2022-08-07T11:49:50.828Z,2.72
2022-08-07T11:52:39.437Z,2.63
2022-08-07T11:56:09.165Z,2.83
2022-08-07T12:00:10.896Z,2.40
2022-08-07T12:02:52.270Z,2.60
2022-08-07T12:06:37.980Z,2.38
2022-08-07T12:09:16.223Z,2.83
2022-08-07T12:12:20.220Z,2.70
2022-08-07T12:16:05.064Z,2.90
2022-08-07T12:18:38.550Z,2.60
2022-08-07T12:22:36.313Z,2.42
2022-08-07T12:26:22.362Z,2.17
2022-08-07T12:28:37.018Z,2.63
2022-08-07T12:31:22.241Z,2.38
2022-08-07T12:34:01.817Z,2.13
2022-08-07T12:36:37.978Z,2.33
2022-08-07T12:39:44.324Z,2.30
2022-08-07T12:42:10.265Z,2.42
2022-08-07T12:44:47.949Z,2.38
2022-08-07T12:47:45.646Z,2.10
2022-08-07T12:50:48.843Z,1.95
2022-08-07T12:54:02.808Z,2.00
2022-08-07T12:56:56.538Z,1.80
2022-08-07T12:59:54.415Z,2.23
2022-08-07T13:02:56.716Z,1.80
2022-08-07T13:06:21.431Z,1.63
2022-08-07T13:10:22.028Z,2.10
2022-08-07T13:12:23.735Z,1.80
2022-08-07T13:15:14.141Z,1.95
2022-08-07T13:18:10.374Z,1.83
2022-08-07T13:21:12.238Z,1.80
2022-08-07T13:24:00.554Z,2.55
2022-08-07T13:26:58.736Z,2.58
2022-08-07T13:30:05.687Z,2.63
2022-08-07T13:33:46.075Z,2.67
2022-08-07T13:36:17.402Z,2.78
2022-08-07T13:39:49.727Z,2.67
2022-08-07T13:42:21.476Z,2.95
2022-08-07T13:46:07.389Z,2.42
2022-08-07T13:48:05.753Z,2.42
2022-08-07T13:53:59.347Z,2.70
2022-08-07T13:56:40.779Z,2.60
2022-08-07T13:59:20.712Z,2.70
2022-08-07T14:02:10.232Z,2.30
2022-08-07T14:07:31.979Z,2.58
2022-08-07T14:10:21.753Z,3.15
2022-08-07T14:13:05.079Z,2.22
2022-08-07T14:15:42.954Z,2.78
2022-08-07T14:18:29.869Z,3.03
2022-08-07T14:21:20.976Z,2.70
2022-08-07T14:24:11.955Z,3.08
2022-08-07T14:26:58.131Z,3.25
2022-08-07T14:30:05.288Z,4.80
2022-08-07T14:32:31.350Z,4.05
2022-08-07T14:35:06.090Z,3.30
2022-08-07T14:38:03.287Z,3.33
2022-08-07T14:40:39.859Z,2.60
2022-08-07T14:43:57.782Z,2.67
2022-08-07T14:46:11.763Z,2.75
2022-08-07T14:48:52.104Z,2.70
2022-08-07T14:52:05.125Z,2.70
2022-08-07T14:54:31.200Z,3.10
2022-08-07T14:57:19.763Z,2.80
2022-08-07T15:00:03.611Z,2.85
2022-08-07T15:02:39.263Z,3.10
2022-08-07T15:05:20.541Z,3.40
2022-08-07T15:07:58.516Z,2.95
2022-08-07T15:10:31.587Z,3.38
2022-08-07T15:16:11.238Z,2.78
2022-08-07T15:18:51.711Z,3.05
2022-08-07T15:21:44.174Z,3.03
2022-08-07T15:25:16.313Z,2.90
2022-08-07T15:30:19.927Z,3.45
2022-08-07T15:33:03.756Z,3.42
2022-08-07T15:36:01.599Z,3.03
2022-08-07T15:42:43.260Z,2.53
2022-08-07T15:44:23.613Z,2.70
2022-08-07T15:47:08.702Z,2.92
2022-08-07T15:50:05.253Z,2.95
2022-08-07T15:52:40.127Z,3.00
2022-08-07T15:55:18.654Z,2.72
2022-08-07T15:57:53.863Z,2.95
2022-08-07T16:00:39.780Z,2.78
2022-08-07T16:03:46.688Z,2.58
2022-08-07T16:06:15.910Z,3.22
2022-08-07T16:08:49.561Z,3.25
2022-08-07T16:12:12.288Z,3.13
2022-08-07T16:15:58.059Z,2.40
2022-08-07T16:18:50.726Z,2.80
2022-08-07T16:22:03.627Z,2.85
2022-08-07T16:24:57.934Z,3.00
2022-08-07T16:27:43.720Z,3.50
2022-08-07T16:30:30.148Z,5.15
2022-08-07T16:34:02.601Z,3.10
2022-08-07T16:37:02.841Z,4.47
2022-08-07T16:40:23.384Z,3.30
2022-08-07T16:44:06.251Z,4.50
2022-08-07T16:47:05.570Z,3.58
2022-08-07T16:50:28.932Z,2.92
2022-08-07T16:54:01.382Z,3.05
2022-08-07T16:56:25.247Z,2.92
2022-08-07T16:59:23.429Z,3.15
2022-08-07T17:02:05.005Z,4.05
2022-08-07T17:06:01.986Z,3.85
2022-08-07T17:08:03.819Z,3.75
2022-08-07T17:10:54.323Z,3.45
2022-08-07T17:14:18.628Z,3.55
2022-08-07T17:17:01.385Z,3.20
2022-08-07T17:20:02.543Z,3.22
2022-08-07T17:22:48.547Z,3.08
2022-08-07T17:25:51.336Z,3.45
2022-08-07T17:28:25.345Z,3.10
2022-08-07T17:31:17.399Z,3.22
2022-08-07T17:34:33.693Z,2.70
2022-08-07T17:38:09.397Z,3.33
2022-08-07T17:40:50.472Z,3.42
2022-08-07T17:44:01.825Z,3.20
2022-08-07T17:46:53.226Z,3.70
2022-08-07T17:49:53.924Z,3.33
2022-08-07T17:52:34.057Z,3.33
2022-08-07T17:55:59.998Z,3.10
2022-08-07T17:58:46.533Z,3.28
2022-08-07T18:01:43.268Z,3.15
2022-08-07T18:05:21.448Z,3.08
2022-08-07T18:08:26.578Z,3.25
2022-08-07T18:12:17.545Z,3.00
2022-08-07T18:14:37.631Z,3.10
2022-08-07T18:18:47.500Z,2.95
2022-08-07T18:21:38.297Z,3.22
2022-08-07T18:24:51.230Z,2.72
2022-08-07T18:27:38.239Z,2.88
2022-08-07T18:30:31.185Z,2.80
2022-08-07T18:33:55.367Z,3.78
2022-08-07T18:37:00.312Z,2.85
2022-08-07T18:40:07.040Z,3.65
2022-08-07T18:43:06.428Z,4.10
2022-08-07T18:46:21.740Z,3.83
2022-08-07T18:50:19.720Z,4.68
2022-08-07T18:52:52.969Z,4.05
2022-08-07T18:55:57.415Z,4.60
2022-08-07T18:58:52.306Z,3.80
2022-08-07T19:02:18.305Z,2.75
2022-08-07T19:05:15.853Z,2.80
2022-08-07T19:08:18.137Z,3.50
2022-08-07T19:11:36.033Z,2.83
2022-08-07T19:14:39.078Z,3.33
2022-08-07T19:17:58.909Z,3.53
2022-08-07T19:20:29.032Z,3.25
2022-08-07T19:23:57.196Z,2.92
2022-08-07T19:26:23.559Z,3.25
2022-08-07T19:31:01.704Z,3.08
2022-08-07T19:32:25.915Z,3.17
2022-08-07T19:35:25.861Z,3.03
2022-08-07T19:38:00.783Z,2.90
2022-08-07T19:40:50.745Z,3.13
2022-08-07T19:43:45.660Z,3.13
2022-08-07T19:46:33.814Z,2.97
2022-08-07T19:49:17.437Z,2.90
2022-08-07T19:52:18.206Z,3.20
2022-08-07T19:54:55.686Z,3.33
2022-08-07T19:58:01.165Z,3.13
2022-08-07T20:00:34.725Z,3.33
2022-08-07T20:03:35.513Z,3.00
2022-08-07T20:06:15.518Z,3.08
2022-08-07T20:09:02.967Z,2.88
2022-08-07T20:12:23.201Z,2.80
2022-08-07T20:14:54.200Z,2.70
2022-08-07T20:17:40.240Z,3.28
2022-08-07T20:20:22.642Z,3.30
2022-08-07T20:23:23.348Z,3.40
2022-08-07T20:26:04.568Z,3.22
2022-08-07T20:28:44.376Z,2.65
2022-08-07T20:31:20.998Z,3.25
2022-08-07T20:33:57.734Z,3.53
2022-08-07T20:36:31.680Z,3.38
2022-08-07T20:39:17.781Z,2.95
2022-08-07T20:41:58.683Z,3.28
2022-08-07T20:44:39.937Z,3.47
2022-08-07T20:47:26.101Z,3.08
2022-08-07T20:50:21.220Z,3.47
2022-08-07T20:52:54.134Z,3.70
2022-08-07T20:55:26.882Z,3.47
2022-08-07T20:58:03.655Z,3.10
2022-08-07T21:00:47.659Z,3.03
2022-08-07T21:03:23.365Z,3.40
2022-08-07T21:06:21.444Z,3.97
2022-08-07T21:09:07.529Z,3.58
2022-08-07T21:11:53.087Z,4.10
2022-08-07T21:14:33.243Z,3.90
2022-08-07T21:18:02.675Z,3.72
2022-08-07T21:20:06.970Z,3.75
2022-08-07T21:22:54.078Z,3.80
2022-08-07T21:25:42.402Z,3.40
2022-08-07T21:28:48.941Z,4.45
2022-08-07T21:31:49.826Z,3.57
2022-08-07T21:34:46.003Z,3.55
2022-08-07T21:37:57.191Z,3.40
2022-08-07T21:40:42.029Z,3.63
2022-08-07T21:43:55.802Z,3.60
2022-08-07T21:46:44.208Z,4.47
2022-08-07T21:49:40.734Z,3.95
2022-08-07T21:52:54.353Z,4.40
2022-08-07T21:56:36.530Z,3.85
2022-08-07T22:00:04.162Z,4.32
2022-08-07T22:02:57.628Z,3.67
2022-08-07T22:05:45.766Z,4.60
2022-08-07T22:08:24.760Z,3.50
2022-08-07T22:11:03.843Z,4.30
2022-08-07T22:13:51.261Z,3.67
2022-08-07T22:16:46.179Z,4.65
2022-08-07T22:19:30.448Z,3.72
2022-08-07T22:22:21.037Z,4.40
2022-08-07T22:25:08.285Z,4.60
2022-08-07T22:28:07.971Z,4.93
2022-08-07T22:30:57.553Z,4.60
2022-08-07T22:34:04.749Z,4.57
2022-08-07T22:36:55.229Z,5.07
2022-08-07T22:39:53.023Z,5.00
2022-08-07T22:42:30.487Z,4.90
2022-08-07T22:45:21.773Z,4.35
2022-08-07T22:48:31.630Z,4.30
2022-08-07T22:51:43.682Z,4.88
2022-08-07T22:55:17.181Z,4.18
2022-08-07T22:58:18.883Z,4.70
2022-08-07T23:01:49.877Z,4.65
2022-08-07T23:06:10.292Z,4.63
2022-08-07T23:08:07.153Z,4.60
2022-08-07T23:11:29.393Z,5.70
2022-08-07T23:14:40.930Z,5.18
2022-08-07T23:17:58.542Z,4.90
2022-08-07T23:20:59.706Z,5.15
2022-08-07T23:24:05.608Z,4.85
2022-08-07T23:27:13.513Z,4.72
2022-08-07T23:30:38.524Z,5.80
2022-08-07T23:34:36.712Z,5.30
2022-08-07T23:37:20.340Z,4.82
2022-08-07T23:40:24.142Z,5.43
2022-08-07T23:43:38.201Z,4.75
2022-08-07T23:46:28.775Z,5.50
2022-08-07T23:49:50.709Z,5.00
2022-08-07T23:53:00.908Z,4.55
2022-08-07T23:55:58.423Z,5.30
2022-08-07T23:58:42.841Z,4.65
